sensor_id;sensor_type;location;lat;lon;timestamp;temperature;humidity
66271;DHT22;53063;39.614;8.814;2024-02-23T00:01:32;11.40;99.90
66271;DHT22;53063;39.614;8.814;2024-02-23T00:03:58;11.40;99.90
66271;DHT22;53063;39.614;8.814;2024-02-23T00:06:24;11.40;99.90
66271;DHT22;53063;39.614;8.814;2024-02-23T00:08:53;11.30;99.90
66271;DHT22;53063;39.614;8.814;2024-02-23T00:11:21;11.20;99.90
66271;DHT22;53063;39.614;8.814;2024-02-23T00:13:46;11.20;99.90
66271;DHT22;53063;39.614;8.814;2024-02-23T00:16:12;11.30;99.90
66271;DHT22;53063;39.614;8.814;2024-02-23T00:18:38;11.20;99.90
66271;DHT22;53063;39.614;8.814;2024-02-23T00:21:04;11.20;99.90
66271;DHT22;53063;39.614;8.814;2024-02-23T00:23:31;11.20;99.90
66271;DHT22;53063;39.614;8.814;2024-02-23T00:25:56;11.20;99.90
66271;DHT22;53063;39.614;8.814;2024-02-23T00:28:22;11.10;99.90
66271;DHT22;53063;39.614;8.814;2024-02-23T00:30:48;11.10;99.90
66271;DHT22;53063;39.614;8.814;2024-02-23T00:33:14;11.00;99.90
66271;DHT22;53063;39.614;8.814;2024-02-23T00:35:40;11.00;99.90
66271;DHT22;53063;39.614;8.814;2024-02-23T00:38:06;11.00;99.90
66271;DHT22;53063;39.614;8.814;2024-02-23T00:40:33;10.90;99.90
66271;DHT22;53063;39.614;8.814;2024-02-23T00:42:59;11.00;99.90
66271;DHT22;53063;39.614;8.814;2024-02-23T00:45:26;10.90;99.90
66271;DHT22;53063;39.614;8.814;2024-02-23T00:47:52;10.90;99.90
66271;DHT22;53063;39.614;8.814;2024-02-23T00:50:18;10.80;99.90
66271;DHT22;53063;39.614;8.814;2024-02-23T00:52:44;10.80;99.90
66271;DHT22;53063;39.614;8.814;2024-02-23T00:55:10;10.70;99.90
66271;DHT22;53063;39.614;8.814;2024-02-23T00:57:37;10.80;99.90
66271;DHT22;53063;39.614;8.814;2024-02-23T01:00:04;10.70;99.90
66271;DHT22;53063;39.614;8.814;2024-02-23T01:02:34;10.70;99.90
66271;DHT22;53063;39.614;8.814;2024-02-23T01:05:00;10.80;99.90
66271;DHT22;53063;39.614;8.814;2024-02-23T01:07:28;10.80;99.90
66271;DHT22;53063;39.614;8.814;2024-02-23T01:09:53;10.90;99.90
66271;DHT22;53063;39.614;8.814;2024-02-23T01:12:19;10.90;99.90
66271;DHT22;53063;39.614;8.814;2024-02-23T01:14:45;10.90;99.90
66271;DHT22;53063;39.614;8.814;2024-02-23T01:17:14;10.90;99.90
66271;DHT22;53063;39.614;8.814;2024-02-23T01:19:44;11.00;99.90
66271;DHT22;53063;39.614;8.814;2024-02-23T01:22:10;11.10;99.90
66271;DHT22;53063;39.614;8.814;2024-02-23T01:24:36;11.10;99.90
66271;DHT22;53063;39.614;8.814;2024-02-23T01:27:02;11.20;99.90
66271;DHT22;53063;39.614;8.814;2024-02-23T01:29:28;11.20;99.90
66271;DHT22;53063;39.614;8.814;2024-02-23T01:31:54;11.20;99.90
66271;DHT22;53063;39.614;8.814;2024-02-23T01:34:21;11.20;99.90
66271;DHT22;53063;39.614;8.814;2024-02-23T01:36:47;11.20;99.90
66271;DHT22;53063;39.614;8.814;2024-02-23T01:39:13;11.20;99.90
66271;DHT22;53063;39.614;8.814;2024-02-23T01:41:39;11.30;99.90
66271;DHT22;53063;39.614;8.814;2024-02-23T01:44:05;11.30;99.90
66271;DHT22;53063;39.614;8.814;2024-02-23T01:46:31;11.40;99.90
66271;DHT22;53063;39.614;8.814;2024-02-23T01:48:57;11.30;99.90
66271;DHT22;53063;39.614;8.814;2024-02-23T01:51:24;11.30;99.90
66271;DHT22;53063;39.614;8.814;2024-02-23T01:53:50;11.30;99.90
66271;DHT22;53063;39.614;8.814;2024-02-23T01:56:17;11.30;99.90
66271;DHT22;53063;39.614;8.814;2024-02-23T01:58:47;11.30;99.90
66271;DHT22;53063;39.614;8.814;2024-02-23T02:01:13;11.30;99.90
66271;DHT22;53063;39.614;8.814;2024-02-23T02:03:39;11.20;99.90
66271;DHT22;53063;39.614;8.814;2024-02-23T02:06:09;11.20;99.90
66271;DHT22;53063;39.614;8.814;2024-02-23T02:08:36;11.20;99.90
66271;DHT22;53063;39.614;8.814;2024-02-23T02:11:02;11.20;99.90
66271;DHT22;53063;39.614;8.814;2024-02-23T02:13:29;11.10;99.90
66271;DHT22;53063;39.614;8.814;2024-02-23T02:16:00;11.20;99.90
66271;DHT22;53063;39.614;8.814;2024-02-23T02:18:27;11.20;99.90
66271;DHT22;53063;39.614;8.814;2024-02-23T02:20:56;11.20;99.90
66271;DHT22;53063;39.614;8.814;2024-02-23T02:23:23;11.20;99.90
66271;DHT22;53063;39.614;8.814;2024-02-23T02:25:56;11.20;99.90
66271;DHT22;53063;39.614;8.814;2024-02-23T02:28:24;11.20;99.90
66271;DHT22;53063;39.614;8.814;2024-02-23T02:30:51;11.20;99.90
66271;DHT22;53063;39.614;8.814;2024-02-23T02:33:16;11.20;99.90
66271;DHT22;53063;39.614;8.814;2024-02-23T02:35:42;11.20;99.90
66271;DHT22;53063;39.614;8.814;2024-02-23T02:38:09;11.20;99.90
66271;DHT22;53063;39.614;8.814;2024-02-23T02:40:35;11.20;99.90
66271;DHT22;53063;39.614;8.814;2024-02-23T02:43:01;11.20;99.90
66271;DHT22;53063;39.614;8.814;2024-02-23T02:45:27;11.30;99.90
66271;DHT22;53063;39.614;8.814;2024-02-23T02:47:53;11.30;99.90
66271;DHT22;53063;39.614;8.814;2024-02-23T02:50:19;11.30;99.90
66271;DHT22;53063;39.614;8.814;2024-02-23T02:52:45;11.40;99.90
66271;DHT22;53063;39.614;8.814;2024-02-23T02:55:10;11.40;99.90
66271;DHT22;53063;39.614;8.814;2024-02-23T02:57:36;11.40;99.90
66271;DHT22;53063;39.614;8.814;2024-02-23T03:00:05;11.40;99.90
66271;DHT22;53063;39.614;8.814;2024-02-23T03:02:35;11.40;99.90
66271;DHT22;53063;39.614;8.814;2024-02-23T03:05:01;11.40;99.90
66271;DHT22;53063;39.614;8.814;2024-02-23T03:07:27;11.40;99.90
66271;DHT22;53063;39.614;8.814;2024-02-23T03:09:53;11.30;99.90
66271;DHT22;53063;39.614;8.814;2024-02-23T03:12:19;11.40;99.90
66271;DHT22;53063;39.614;8.814;2024-02-23T03:14:45;11.40;99.90
66271;DHT22;53063;39.614;8.814;2024-02-23T03:17:11;11.50;99.90
66271;DHT22;53063;39.614;8.814;2024-02-23T03:19:38;11.60;99.90
66271;DHT22;53063;39.614;8.814;2024-02-23T03:22:05;11.60;99.90
66271;DHT22;53063;39.614;8.814;2024-02-23T03:24:31;11.50;99.90
66271;DHT22;53063;39.614;8.814;2024-02-23T03:26:56;11.60;99.90
66271;DHT22;53063;39.614;8.814;2024-02-23T03:29:23;11.60;99.90
66271;DHT22;53063;39.614;8.814;2024-02-23T03:31:55;11.60;99.90
66271;DHT22;53063;39.614;8.814;2024-02-23T03:34:21;11.60;99.90
66271;DHT22;53063;39.614;8.814;2024-02-23T03:36:47;11.60;99.90
66271;DHT22;53063;39.614;8.814;2024-02-23T03:39:13;11.60;99.90
66271;DHT22;53063;39.614;8.814;2024-02-23T03:41:39;11.70;99.90
66271;DHT22;53063;39.614;8.814;2024-02-23T03:44:05;11.70;99.90
66271;DHT22;53063;39.614;8.814;2024-02-23T03:46:31;11.70;99.90
66271;DHT22;53063;39.614;8.814;2024-02-23T03:48:59;11.70;99.90
66271;DHT22;53063;39.614;8.814;2024-02-23T03:51:24;11.70;99.90
66271;DHT22;53063;39.614;8.814;2024-02-23T03:53:50;11.70;99.90
66271;DHT22;53063;39.614;8.814;2024-02-23T03:56:16;11.70;99.90
66271;DHT22;53063;39.614;8.814;2024-02-23T03:58:42;11.70;99.90
66271;DHT22;53063;39.614;8.814;2024-02-23T04:01:08;11.70;99.90
66271;DHT22;53063;39.614;8.814;2024-02-23T04:03:37;11.70;99.90
66271;DHT22;53063;39.614;8.814;2024-02-23T04:06:03;11.70;99.90
66271;DHT22;53063;39.614;8.814;2024-02-23T04:08:29;11.80;99.90
66271;DHT22;53063;39.614;8.814;2024-02-23T04:10:55;11.80;99.90
66271;DHT22;53063;39.614;8.814;2024-02-23T04:13:21;11.80;99.90
66271;DHT22;53063;39.614;8.814;2024-02-23T04:15:47;11.80;99.90
66271;DHT22;53063;39.614;8.814;2024-02-23T04:18:13;11.80;99.90
66271;DHT22;53063;39.614;8.814;2024-02-23T04:20:38;11.80;99.90
66271;DHT22;53063;39.614;8.814;2024-02-23T04:23:04;11.70;99.90
66271;DHT22;53063;39.614;8.814;2024-02-23T04:25:30;11.70;99.90
66271;DHT22;53063;39.614;8.814;2024-02-23T04:27:56;11.70;99.90
66271;DHT22;53063;39.614;8.814;2024-02-23T04:30:22;11.80;99.90
66271;DHT22;53063;39.614;8.814;2024-02-23T04:32:48;11.80;99.90
66271;DHT22;53063;39.614;8.814;2024-02-23T04:35:14;11.80;99.90
66271;DHT22;53063;39.614;8.814;2024-02-23T04:37:44;11.80;99.90
66271;DHT22;53063;39.614;8.814;2024-02-23T04:40:10;11.90;99.90
66271;DHT22;53063;39.614;8.814;2024-02-23T04:42:37;11.90;99.90
66271;DHT22;53063;39.614;8.814;2024-02-23T04:45:04;12.00;99.90
66271;DHT22;53063;39.614;8.814;2024-02-23T04:47:30;12.10;99.90
66271;DHT22;53063;39.614;8.814;2024-02-23T04:49:56;12.00;99.90
66271;DHT22;53063;39.614;8.814;2024-02-23T04:52:22;12.00;99.90
66271;DHT22;53063;39.614;8.814;2024-02-23T04:54:48;12.10;99.90
66271;DHT22;53063;39.614;8.814;2024-02-23T04:57:14;12.10;99.90
66271;DHT22;53063;39.614;8.814;2024-02-23T04:59:40;12.10;99.90
66271;DHT22;53063;39.614;8.814;2024-02-23T05:02:06;12.10;99.90
66271;DHT22;53063;39.614;8.814;2024-02-23T05:04:32;12.10;99.90
66271;DHT22;53063;39.614;8.814;2024-02-23T05:06:58;12.10;99.90
66271;DHT22;53063;39.614;8.814;2024-02-23T05:09:24;12.10;99.90
66271;DHT22;53063;39.614;8.814;2024-02-23T05:11:50;12.10;99.90
66271;DHT22;53063;39.614;8.814;2024-02-23T05:14:16;12.10;99.90
66271;DHT22;53063;39.614;8.814;2024-02-23T05:16:42;12.10;99.90
66271;DHT22;53063;39.614;8.814;2024-02-23T05:19:08;12.10;99.90
66271;DHT22;53063;39.614;8.814;2024-02-23T05:21:34;12.00;99.90
66271;DHT22;53063;39.614;8.814;2024-02-23T05:23:59;12.00;99.90
66271;DHT22;53063;39.614;8.814;2024-02-23T05:26:26;11.90;99.90
66271;DHT22;53063;39.614;8.814;2024-02-23T05:28:52;11.90;99.90
66271;DHT22;53063;39.614;8.814;2024-02-23T05:31:18;12.00;99.90
66271;DHT22;53063;39.614;8.814;2024-02-23T05:33:43;12.10;99.90
66271;DHT22;53063;39.614;8.814;2024-02-23T05:36:09;12.10;99.90
66271;DHT22;53063;39.614;8.814;2024-02-23T05:38:35;12.10;99.90
66271;DHT22;53063;39.614;8.814;2024-02-23T05:41:01;12.10;99.90
66271;DHT22;53063;39.614;8.814;2024-02-23T05:43:27;12.00;99.90
66271;DHT22;53063;39.614;8.814;2024-02-23T05:45:53;12.00;99.90
66271;DHT22;53063;39.614;8.814;2024-02-23T05:48:22;12.00;99.90
66271;DHT22;53063;39.614;8.814;2024-02-23T05:50:48;12.00;99.90
66271;DHT22;53063;39.614;8.814;2024-02-23T05:53:14;12.00;99.90
66271;DHT22;53063;39.614;8.814;2024-02-23T05:55:40;12.00;99.90
66271;DHT22;53063;39.614;8.814;2024-02-23T05:58:06;12.00;99.90
66271;DHT22;53063;39.614;8.814;2024-02-23T06:00:32;12.00;99.90
66271;DHT22;53063;39.614;8.814;2024-02-23T06:02:58;12.00;99.90
66271;DHT22;53063;39.614;8.814;2024-02-23T06:05:24;12.00;99.90
66271;DHT22;53063;39.614;8.814;2024-02-23T06:07:49;11.90;99.90
66271;DHT22;53063;39.614;8.814;2024-02-23T06:10:15;12.00;99.90
66271;DHT22;53063;39.614;8.814;2024-02-23T06:12:41;12.00;99.90
66271;DHT22;53063;39.614;8.814;2024-02-23T06:15:07;12.00;99.90
66271;DHT22;53063;39.614;8.814;2024-02-23T06:17:33;12.00;99.90
66271;DHT22;53063;39.614;8.814;2024-02-23T06:19:59;12.00;99.90
66271;DHT22;53063;39.614;8.814;2024-02-23T06:22:25;12.00;99.90
66271;DHT22;53063;39.614;8.814;2024-02-23T06:24:51;12.00;99.90
66271;DHT22;53063;39.614;8.814;2024-02-23T06:27:17;12.00;99.90
66271;DHT22;53063;39.614;8.814;2024-02-23T06:29:43;12.00;99.90
66271;DHT22;53063;39.614;8.814;2024-02-23T06:32:09;12.00;99.90
66271;DHT22;53063;39.614;8.814;2024-02-23T06:34:35;12.00;99.90
66271;DHT22;53063;39.614;8.814;2024-02-23T06:37:01;12.10;99.90
66271;DHT22;53063;39.614;8.814;2024-02-23T06:39:27;12.10;99.90
66271;DHT22;53063;39.614;8.814;2024-02-23T06:41:53;12.10;99.90
66271;DHT22;53063;39.614;8.814;2024-02-23T06:44:19;12.10;99.90
66271;DHT22;53063;39.614;8.814;2024-02-23T06:46:44;12.20;99.90
66271;DHT22;53063;39.614;8.814;2024-02-23T06:49:10;12.20;99.90
66271;DHT22;53063;39.614;8.814;2024-02-23T06:51:36;12.20;99.90
66271;DHT22;53063;39.614;8.814;2024-02-23T06:54:03;12.30;99.90
66271;DHT22;53063;39.614;8.814;2024-02-23T06:56:29;12.40;99.90
66271;DHT22;53063;39.614;8.814;2024-02-23T06:58:55;12.40;99.90
66271;DHT22;53063;39.614;8.814;2024-02-23T07:01:21;12.40;99.90
66271;DHT22;53063;39.614;8.814;2024-02-23T07:03:47;12.50;99.90
66271;DHT22;53063;39.614;8.814;2024-02-23T07:06:16;12.50;99.90
66271;DHT22;53063;39.614;8.814;2024-02-23T07:08:44;12.50;99.90
66271;DHT22;53063;39.614;8.814;2024-02-23T07:11:11;12.60;99.90
66271;DHT22;53063;39.614;8.814;2024-02-23T07:13:36;12.70;99.90
66271;DHT22;53063;39.614;8.814;2024-02-23T07:16:03;12.70;99.90
66271;DHT22;53063;39.614;8.814;2024-02-23T07:18:28;12.80;99.90
66271;DHT22;53063;39.614;8.814;2024-02-23T07:20:54;12.90;99.90
66271;DHT22;53063;39.614;8.814;2024-02-23T07:23:20;12.90;99.90
66271;DHT22;53063;39.614;8.814;2024-02-23T07:25:48;13.00;99.90
66271;DHT22;53063;39.614;8.814;2024-02-23T07:28:16;13.10;99.90
66271;DHT22;53063;39.614;8.814;2024-02-23T07:30:45;13.20;99.90
66271;DHT22;53063;39.614;8.814;2024-02-23T07:33:12;13.30;99.90
66271;DHT22;53063;39.614;8.814;2024-02-23T07:35:37;13.40;99.90
66271;DHT22;53063;39.614;8.814;2024-02-23T07:38:03;13.60;99.90
66271;DHT22;53063;39.614;8.814;2024-02-23T07:40:29;13.60;99.90
66271;DHT22;53063;39.614;8.814;2024-02-23T07:42:57;13.60;99.90
66271;DHT22;53063;39.614;8.814;2024-02-23T07:45:23;13.60;99.90
66271;DHT22;53063;39.614;8.814;2024-02-23T07:47:49;13.70;99.90
66271;DHT22;53063;39.614;8.814;2024-02-23T07:50:15;13.70;99.90
66271;DHT22;53063;39.614;8.814;2024-02-23T07:52:41;13.80;99.90
66271;DHT22;53063;39.614;8.814;2024-02-23T07:55:07;13.80;99.90
66271;DHT22;53063;39.614;8.814;2024-02-23T07:57:33;13.80;99.90
66271;DHT22;53063;39.614;8.814;2024-02-23T08:00:00;13.90;99.90
66271;DHT22;53063;39.614;8.814;2024-02-23T08:02:26;14.00;99.90
66271;DHT22;53063;39.614;8.814;2024-02-23T08:04:52;14.00;99.90
66271;DHT22;53063;39.614;8.814;2024-02-23T08:07:18;14.20;99.90
66271;DHT22;53063;39.614;8.814;2024-02-23T08:09:44;14.30;99.90
66271;DHT22;53063;39.614;8.814;2024-02-23T08:12:10;14.30;99.90
66271;DHT22;53063;39.614;8.814;2024-02-23T08:14:37;14.30;99.90
66271;DHT22;53063;39.614;8.814;2024-02-23T08:17:02;14.40;99.90
66271;DHT22;53063;39.614;8.814;2024-02-23T08:19:28;14.30;99.90
66271;DHT22;53063;39.614;8.814;2024-02-23T08:21:54;14.30;99.90
66271;DHT22;53063;39.614;8.814;2024-02-23T08:24:20;14.40;99.90
66271;DHT22;53063;39.614;8.814;2024-02-23T08:26:46;14.30;99.90
66271;DHT22;53063;39.614;8.814;2024-02-23T08:29:12;14.40;99.90
66271;DHT22;53063;39.614;8.814;2024-02-23T08:31:38;14.50;99.90
66271;DHT22;53063;39.614;8.814;2024-02-23T08:34:04;14.50;99.90
66271;DHT22;53063;39.614;8.814;2024-02-23T08:36:30;14.50;99.90
66271;DHT22;53063;39.614;8.814;2024-02-23T08:38:56;14.50;99.90
66271;DHT22;53063;39.614;8.814;2024-02-23T08:41:21;14.70;99.90
66271;DHT22;53063;39.614;8.814;2024-02-23T08:43:47;14.90;99.90
66271;DHT22;53063;39.614;8.814;2024-02-23T08:46:13;15.10;99.90
66271;DHT22;53063;39.614;8.814;2024-02-23T08:48:39;15.30;99.90
66271;DHT22;53063;39.614;8.814;2024-02-23T08:51:05;15.60;99.90
66271;DHT22;53063;39.614;8.814;2024-02-23T08:53:31;15.80;99.90
66271;DHT22;53063;39.614;8.814;2024-02-23T08:55:57;16.00;99.90
66271;DHT22;53063;39.614;8.814;2024-02-23T08:58:23;16.10;99.90
66271;DHT22;53063;39.614;8.814;2024-02-23T09:00:49;16.10;99.90
66271;DHT22;53063;39.614;8.814;2024-02-23T09:03:14;16.20;99.90
66271;DHT22;53063;39.614;8.814;2024-02-23T09:05:40;16.20;99.90
66271;DHT22;53063;39.614;8.814;2024-02-23T09:08:06;16.30;99.90
66271;DHT22;53063;39.614;8.814;2024-02-23T09:10:32;16.40;99.90
66271;DHT22;53063;39.614;8.814;2024-02-23T09:12:58;16.70;99.90
66271;DHT22;53063;39.614;8.814;2024-02-23T09:15:24;16.70;99.90
66271;DHT22;53063;39.614;8.814;2024-02-23T09:17:50;16.80;99.90
66271;DHT22;53063;39.614;8.814;2024-02-23T09:20:16;16.50;99.90
66271;DHT22;53063;39.614;8.814;2024-02-23T09:22:42;16.50;99.90
66271;DHT22;53063;39.614;8.814;2024-02-23T09:25:08;16.50;99.90
66271;DHT22;53063;39.614;8.814;2024-02-23T09:27:34;16.40;99.90
66271;DHT22;53063;39.614;8.814;2024-02-23T09:30:04;16.40;99.90
66271;DHT22;53063;39.614;8.814;2024-02-23T09:32:31;16.20;99.90
66271;DHT22;53063;39.614;8.814;2024-02-23T09:34:57;16.20;99.90
66271;DHT22;53063;39.614;8.814;2024-02-23T09:37:24;16.20;99.90
66271;DHT22;53063;39.614;8.814;2024-02-23T09:39:50;16.10;99.90
66271;DHT22;53063;39.614;8.814;2024-02-23T09:42:15;16.00;99.90
66271;DHT22;53063;39.614;8.814;2024-02-23T09:44:44;16.10;99.90
66271;DHT22;53063;39.614;8.814;2024-02-23T09:47:12;16.20;99.90
66271;DHT22;53063;39.614;8.814;2024-02-23T09:49:40;15.90;99.90
66271;DHT22;53063;39.614;8.814;2024-02-23T09:52:09;16.00;99.90
66271;DHT22;53063;39.614;8.814;2024-02-23T09:54:37;15.90;99.90
66271;DHT22;53063;39.614;8.814;2024-02-23T09:57:07;15.90;99.90
66271;DHT22;53063;39.614;8.814;2024-02-23T09:59:35;16.20;99.90
66271;DHT22;53063;39.614;8.814;2024-02-23T10:02:03;16.50;99.90
66271;DHT22;53063;39.614;8.814;2024-02-23T10:04:32;16.50;99.90
66271;DHT22;53063;39.614;8.814;2024-02-23T10:06:58;16.50;99.90
66271;DHT22;53063;39.614;8.814;2024-02-23T10:09:23;16.70;99.90
66271;DHT22;53063;39.614;8.814;2024-02-23T10:11:53;17.00;99.90
66271;DHT22;53063;39.614;8.814;2024-02-23T10:14:20;17.10;99.90
66271;DHT22;53063;39.614;8.814;2024-02-23T10:16:47;17.50;99.90
66271;DHT22;53063;39.614;8.814;2024-02-23T10:19:12;17.10;99.90
66271;DHT22;53063;39.614;8.814;2024-02-23T10:21:38;17.40;99.90
66271;DHT22;53063;39.614;8.814;2024-02-23T10:24:07;17.30;99.90
66271;DHT22;53063;39.614;8.814;2024-02-23T10:26:33;17.20;99.90
66271;DHT22;53063;39.614;8.814;2024-02-23T10:28:59;17.10;99.90
66271;DHT22;53063;39.614;8.814;2024-02-23T10:31:25;16.80;99.90
66271;DHT22;53063;39.614;8.814;2024-02-23T10:33:51;16.60;99.90
66271;DHT22;53063;39.614;8.814;2024-02-23T10:36:18;16.40;99.90
66271;DHT22;53063;39.614;8.814;2024-02-23T10:38:45;16.20;99.90
66271;DHT22;53063;39.614;8.814;2024-02-23T10:41:17;16.10;99.90
66271;DHT22;53063;39.614;8.814;2024-02-23T10:43:48;15.90;99.90
66271;DHT22;53063;39.614;8.814;2024-02-23T10:46:15;15.90;99.90
66271;DHT22;53063;39.614;8.814;2024-02-23T10:48:42;15.80;99.90
66271;DHT22;53063;39.614;8.814;2024-02-23T10:51:11;15.70;99.90
66271;DHT22;53063;39.614;8.814;2024-02-23T10:53:39;15.80;99.90
66271;DHT22;53063;39.614;8.814;2024-02-23T10:56:07;16.00;99.90
66271;DHT22;53063;39.614;8.814;2024-02-23T10:58:33;16.10;99.90
66271;DHT22;53063;39.614;8.814;2024-02-23T11:01:01;16.50;99.90
66271;DHT22;53063;39.614;8.814;2024-02-23T11:03:32;16.70;99.90
66271;DHT22;53063;39.614;8.814;2024-02-23T11:06:02;16.80;99.90
66271;DHT22;53063;39.614;8.814;2024-02-23T11:08:28;17.20;99.90
66271;DHT22;53063;39.614;8.814;2024-02-23T11:10:54;17.30;99.90
66271;DHT22;53063;39.614;8.814;2024-02-23T11:13:39;17.60;99.90
66271;DHT22;53063;39.614;8.814;2024-02-23T11:16:07;17.50;99.90
66271;DHT22;53063;39.614;8.814;2024-02-23T11:18:38;17.40;99.90
66271;DHT22;53063;39.614;8.814;2024-02-23T11:21:05;17.00;99.90
66271;DHT22;53063;39.614;8.814;2024-02-23T11:23:44;16.80;99.90
66271;DHT22;53063;39.614;8.814;2024-02-23T11:26:11;16.70;99.90
66271;DHT22;53063;39.614;8.814;2024-02-23T11:28:51;16.30;99.90
66271;DHT22;53063;39.614;8.814;2024-02-23T11:31:23;16.20;99.90
66271;DHT22;53063;39.614;8.814;2024-02-23T11:33:56;15.90;99.90
66271;DHT22;53063;39.614;8.814;2024-02-23T11:36:31;15.70;99.90
66271;DHT22;53063;39.614;8.814;2024-02-23T11:38:59;15.90;99.90
66271;DHT22;53063;39.614;8.814;2024-02-23T11:41:27;16.00;99.90
66271;DHT22;53063;39.614;8.814;2024-02-23T11:43:54;16.20;99.90
66271;DHT22;53063;39.614;8.814;2024-02-23T11:46:21;16.40;99.90
66271;DHT22;53063;39.614;8.814;2024-02-23T11:48:48;16.80;99.90
66271;DHT22;53063;39.614;8.814;2024-02-23T11:51:23;17.30;99.90
66271;DHT22;53063;39.614;8.814;2024-02-23T11:53:52;17.20;99.90
66271;DHT22;53063;39.614;8.814;2024-02-23T11:56:19;17.10;99.90
66271;DHT22;53063;39.614;8.814;2024-02-23T11:58:46;17.20;99.90
66271;DHT22;53063;39.614;8.814;2024-02-23T12:01:12;16.90;99.90
66271;DHT22;53063;39.614;8.814;2024-02-23T12:03:38;16.60;99.90
66271;DHT22;53063;39.614;8.814;2024-02-23T12:06:05;16.40;99.90
66271;DHT22;53063;39.614;8.814;2024-02-23T12:08:32;16.30;99.90
66271;DHT22;53063;39.614;8.814;2024-02-23T12:11:07;16.00;99.90
66271;DHT22;53063;39.614;8.814;2024-02-23T12:13:37;16.00;99.90
66271;DHT22;53063;39.614;8.814;2024-02-23T12:16:03;15.90;99.90
66271;DHT22;53063;39.614;8.814;2024-02-23T12:18:29;15.90;99.90
66271;DHT22;53063;39.614;8.814;2024-02-23T12:21:05;16.00;99.90
66271;DHT22;53063;39.614;8.814;2024-02-23T12:23:44;16.30;99.90
66271;DHT22;53063;39.614;8.814;2024-02-23T12:26:12;16.30;99.90
66271;DHT22;53063;39.614;8.814;2024-02-23T12:28:39;16.50;99.90
66271;DHT22;53063;39.614;8.814;2024-02-23T12:31:06;16.60;99.90
66271;DHT22;53063;39.614;8.814;2024-02-23T12:33:33;16.80;99.90
66271;DHT22;53063;39.614;8.814;2024-02-23T12:36:00;16.50;99.90
66271;DHT22;53063;39.614;8.814;2024-02-23T12:38:26;16.30;99.90
66271;DHT22;53063;39.614;8.814;2024-02-23T12:40:52;16.00;99.90
66271;DHT22;53063;39.614;8.814;2024-02-23T12:43:19;16.10;99.90
66271;DHT22;53063;39.614;8.814;2024-02-23T12:45:50;16.00;99.90
66271;DHT22;53063;39.614;8.814;2024-02-23T12:48:17;15.90;99.90
66271;DHT22;53063;39.614;8.814;2024-02-23T12:50:44;16.00;99.90
66271;DHT22;53063;39.614;8.814;2024-02-23T12:53:31;16.10;99.90
66271;DHT22;53063;39.614;8.814;2024-02-23T12:56:09;15.90;99.90
66271;DHT22;53063;39.614;8.814;2024-02-23T12:58:35;15.90;99.90
66271;DHT22;53063;39.614;8.814;2024-02-23T13:01:02;16.00;99.90
66271;DHT22;53063;39.614;8.814;2024-02-23T13:03:28;16.00;99.90
66271;DHT22;53063;39.614;8.814;2024-02-23T13:05:55;16.00;99.90
66271;DHT22;53063;39.614;8.814;2024-02-23T13:08:22;15.90;99.90
66271;DHT22;53063;39.614;8.814;2024-02-23T13:10:52;15.70;99.90
66271;DHT22;53063;39.614;8.814;2024-02-23T13:13:22;15.40;99.90
66271;DHT22;53063;39.614;8.814;2024-02-23T13:15:51;15.30;99.90
66271;DHT22;53063;39.614;8.814;2024-02-23T13:18:17;15.20;99.90
66271;DHT22;53063;39.614;8.814;2024-02-23T13:20:43;14.80;99.90
66271;DHT22;53063;39.614;8.814;2024-02-23T13:23:10;14.50;99.90
66271;DHT22;53063;39.614;8.814;2024-02-23T13:25:37;14.20;99.90
66271;DHT22;53063;39.614;8.814;2024-02-23T13:28:04;14.00;99.90
66271;DHT22;53063;39.614;8.814;2024-02-23T13:30:31;13.90;99.90
66271;DHT22;53063;39.614;8.814;2024-02-23T13:32:57;13.90;99.90
66271;DHT22;53063;39.614;8.814;2024-02-23T13:35:23;13.70;99.90
66271;DHT22;53063;39.614;8.814;2024-02-23T13:37:49;13.70;99.90
66271;DHT22;53063;39.614;8.814;2024-02-23T13:40:15;13.60;99.90
66271;DHT22;53063;39.614;8.814;2024-02-23T13:42:41;13.70;99.90
66271;DHT22;53063;39.614;8.814;2024-02-23T13:45:08;13.90;99.90
66271;DHT22;53063;39.614;8.814;2024-02-23T13:47:35;13.80;99.90
66271;DHT22;53063;39.614;8.814;2024-02-23T13:50:04;13.60;99.90
66271;DHT22;53063;39.614;8.814;2024-02-23T13:52:30;13.80;99.90
66271;DHT22;53063;39.614;8.814;2024-02-23T13:54:56;13.80;99.90
66271;DHT22;53063;39.614;8.814;2024-02-23T13:57:22;13.80;99.90
66271;DHT22;53063;39.614;8.814;2024-02-23T13:59:48;13.80;99.90
66271;DHT22;53063;39.614;8.814;2024-02-23T14:02:14;13.90;99.90
66271;DHT22;53063;39.614;8.814;2024-02-23T14:04:40;13.70;99.90
66271;DHT22;53063;39.614;8.814;2024-02-23T14:07:07;13.60;99.90
66271;DHT22;53063;39.614;8.814;2024-02-23T14:09:33;13.80;99.90
66271;DHT22;53063;39.614;8.814;2024-02-23T14:11:59;13.80;99.90
66271;DHT22;53063;39.614;8.814;2024-02-23T14:14:25;13.60;99.90
66271;DHT22;53063;39.614;8.814;2024-02-23T14:16:51;13.40;99.90
66271;DHT22;53063;39.614;8.814;2024-02-23T14:19:17;13.40;99.90
66271;DHT22;53063;39.614;8.814;2024-02-23T14:21:47;13.30;99.90
66271;DHT22;53063;39.614;8.814;2024-02-23T14:24:14;13.10;99.90
66271;DHT22;53063;39.614;8.814;2024-02-23T14:26:40;13.30;99.90
66271;DHT22;53063;39.614;8.814;2024-02-23T14:29:06;13.40;99.90
66271;DHT22;53063;39.614;8.814;2024-02-23T14:31:31;13.40;99.90
66271;DHT22;53063;39.614;8.814;2024-02-23T14:33:57;13.40;99.90
66271;DHT22;53063;39.614;8.814;2024-02-23T14:36:23;13.40;99.90
66271;DHT22;53063;39.614;8.814;2024-02-23T14:38:49;13.50;99.90
66271;DHT22;53063;39.614;8.814;2024-02-23T14:41:15;13.20;99.90
66271;DHT22;53063;39.614;8.814;2024-02-23T14:43:41;13.10;99.90
66271;DHT22;53063;39.614;8.814;2024-02-23T14:46:07;13.10;99.90
66271;DHT22;53063;39.614;8.814;2024-02-23T14:48:35;13.10;99.90
66271;DHT22;53063;39.614;8.814;2024-02-23T14:51:01;13.20;99.90
66271;DHT22;53063;39.614;8.814;2024-02-23T14:53:29;13.10;99.90
66271;DHT22;53063;39.614;8.814;2024-02-23T14:55:55;13.10;99.90
66271;DHT22;53063;39.614;8.814;2024-02-23T14:58:21;13.20;99.90
66271;DHT22;53063;39.614;8.814;2024-02-23T15:00:47;13.10;99.90
66271;DHT22;53063;39.614;8.814;2024-02-23T15:03:13;13.00;99.90
66271;DHT22;53063;39.614;8.814;2024-02-23T15:05:39;12.80;99.90
66271;DHT22;53063;39.614;8.814;2024-02-23T15:08:06;12.80;99.90
66271;DHT22;53063;39.614;8.814;2024-02-23T15:10:33;12.80;99.90
66271;DHT22;53063;39.614;8.814;2024-02-23T15:12:59;12.80;99.90
66271;DHT22;53063;39.614;8.814;2024-02-23T15:15:25;12.90;99.90
66271;DHT22;53063;39.614;8.814;2024-02-23T15:17:51;12.90;99.90
66271;DHT22;53063;39.614;8.814;2024-02-23T15:20:18;12.80;99.90
66271;DHT22;53063;39.614;8.814;2024-02-23T15:22:45;12.70;99.90
66271;DHT22;53063;39.614;8.814;2024-02-23T15:25:12;12.60;99.90
66271;DHT22;53063;39.614;8.814;2024-02-23T15:27:38;12.70;99.90